If you wish to contribute or participate in the discussions about articles you are invited to join SKYbrary as a registered user

 Actions

Leon Airport

From SKYbrary Wiki

LELN
Airport
ICAO: LELN – IATA: LEN
Summary
Name Leon Airport
Region Europe
Territory Spain ES.gif
Location , Castilla y Leon
Serving Leon
Elevation 916.229 m <br />3,006 ft <br />3,006 ft916.229 m <br />
Type medium airport
Coordinates 42° 35' 20.40" N, 5° 39' 20.00" W
Runways
Designator Length Width Surface ROPS
5/23 2100 m6,889.764 ft <br /> 45 m147.638 ft <br /> ASP /
6/24 1100 m3,608.924 ft <br /> 100 m328.084 ft <br /> GRE /


METAR
Observation LELN 130830Z 11004KT 070V160 CAVOK 20/13 Q1024
Station Leon / Virgen Del Camino
Date/Time 13 June 2021 08:30:00
Wind direction 110°
Wind speed 04 kts
Lowest cloud amount clouds and visibility OK
Temperature 20°C
Dew point 13°C
Humidity 64%
QNH 1024 hPa
Weather condition n/a